Newburgh, Canada
Current Conditions -  °F | °C
As of 12:00 PM on Sunday 23 Nov 2014 (Local Time) from CYGK Reporting Station
Overcast Overcast  
Wind Chill: 43°   Ceiling: 2500
Heat Index: 46°   Visibility: 12mi
Dew Point: 45°   Wind: 7mph
Humidity: 93%   Direction: 190°S
Pressure: 30.02"   Gusts: NA
Location:  44.33°N, 76.87°W
Report Text: CYGK 231700Z 19006KT 12SM OVC025 08/07 A3002 RMK SC8 SLP168
Loading
Personal Weather Stations






























Interactive Weather Map New forecast layout! Learn more

10-Day Weather Forecast

Advertisements
Track Severe Weather on mobile